sensor_id;sensor_type;location;lat;lon;timestamp;P1;durP1;ratioP1;P2;durP2;ratioP2
59109;SDS011;44895;47.438;18.978;2022-08-18T00:02:36;6.15;;;3.08;;
59109;SDS011;44895;47.438;18.978;2022-08-18T00:05:42;10.65;;;3.65;;
59109;SDS011;44895;47.438;18.978;2022-08-18T00:08:45;7.82;;;3.88;;
59109;SDS011;44895;47.438;18.978;2022-08-18T00:11:49;7.63;;;2.90;;
59109;SDS011;44895;47.438;18.978;2022-08-18T00:14:53;6.55;;;3.28;;
59109;SDS011;44895;47.438;18.978;2022-08-18T00:17:58;7.10;;;3.25;;
59109;SDS011;44895;47.438;18.978;2022-08-18T00:21:01;7.70;;;3.80;;
59109;SDS011;44895;47.438;18.978;2022-08-18T00:24:05;8.43;;;5.35;;
59109;SDS011;44895;47.438;18.978;2022-08-18T00:27:09;7.70;;;3.95;;
59109;SDS011;44895;47.438;18.978;2022-08-18T00:30:17;7.50;;;3.80;;
59109;SDS011;44895;47.438;18.978;2022-08-18T00:33:23;9.50;;;4.32;;
59109;SDS011;44895;47.438;18.978;2022-08-18T00:36:27;8.45;;;4.40;;
59109;SDS011;44895;47.438;18.978;2022-08-18T00:39:31;8.45;;;4.57;;
59109;SDS011;44895;47.438;18.978;2022-08-18T00:42:39;8.10;;;4.15;;
59109;SDS011;44895;47.438;18.978;2022-08-18T00:45:46;8.75;;;4.72;;
59109;SDS011;44895;47.438;18.978;2022-08-18T00:48:50;8.60;;;4.65;;
59109;SDS011;44895;47.438;18.978;2022-08-18T00:51:54;15.50;;;5.45;;
59109;SDS011;44895;47.438;18.978;2022-08-18T00:55:00;10.15;;;5.43;;
59109;SDS011;44895;47.438;18.978;2022-08-18T00:58:07;8.68;;;4.07;;
59109;SDS011;44895;47.438;18.978;2022-08-18T01:01:15;7.53;;;4.43;;
59109;SDS011;44895;47.438;18.978;2022-08-18T01:04:23;8.52;;;4.72;;
59109;SDS011;44895;47.438;18.978;2022-08-18T01:07:32;9.52;;;5.32;;
59109;SDS011;44895;47.438;18.978;2022-08-18T01:10:42;7.88;;;4.90;;
59109;SDS011;44895;47.438;18.978;2022-08-18T01:13:47;9.32;;;5.05;;
59109;SDS011;44895;47.438;18.978;2022-08-18T01:16:51;10.95;;;5.05;;
59109;SDS011;44895;47.438;18.978;2022-08-18T01:20:14;10.48;;;5.95;;
59109;SDS011;44895;47.438;18.978;2022-08-18T01:23:43;11.15;;;6.07;;
59109;SDS011;44895;47.438;18.978;2022-08-18T01:26:48;10.43;;;5.22;;
59109;SDS011;44895;47.438;18.978;2022-08-18T01:29:52;8.40;;;5.13;;
59109;SDS011;44895;47.438;18.978;2022-08-18T01:32:57;9.88;;;5.78;;
59109;SDS011;44895;47.438;18.978;2022-08-18T01:36:11;8.77;;;5.60;;
59109;SDS011;44895;47.438;18.978;2022-08-18T01:39:19;9.15;;;5.70;;
59109;SDS011;44895;47.438;18.978;2022-08-18T01:42:23;9.35;;;6.40;;
59109;SDS011;44895;47.438;18.978;2022-08-18T01:45:27;10.20;;;6.97;;
59109;SDS011;44895;47.438;18.978;2022-08-18T01:48:32;9.40;;;6.38;;
59109;SDS011;44895;47.438;18.978;2022-08-18T01:51:36;9.63;;;6.28;;
59109;SDS011;44895;47.438;18.978;2022-08-18T01:54:44;8.15;;;5.28;;
59109;SDS011;44895;47.438;18.978;2022-08-18T01:57:48;17.35;;;7.30;;
59109;SDS011;44895;47.438;18.978;2022-08-18T02:00:52;9.55;;;6.35;;
59109;SDS011;44895;47.438;18.978;2022-08-18T02:03:58;10.20;;;6.20;;
59109;SDS011;44895;47.438;18.978;2022-08-18T02:07:04;10.48;;;5.55;;
59109;SDS011;44895;47.438;18.978;2022-08-18T02:13:15;10.68;;;6.13;;
59109;SDS011;44895;47.438;18.978;2022-08-18T02:16:19;9.40;;;6.40;;
59109;SDS011;44895;47.438;18.978;2022-08-18T02:19:23;9.80;;;6.25;;
59109;SDS011;44895;47.438;18.978;2022-08-18T02:22:27;11.80;;;6.25;;
59109;SDS011;44895;47.438;18.978;2022-08-18T02:25:31;11.45;;;6.05;;
59109;SDS011;44895;47.438;18.978;2022-08-18T02:28:35;8.93;;;5.82;;
59109;SDS011;44895;47.438;18.978;2022-08-18T02:31:38;10.02;;;6.80;;
59109;SDS011;44895;47.438;18.978;2022-08-18T02:34:42;12.13;;;6.90;;
59109;SDS011;44895;47.438;18.978;2022-08-18T02:37:46;12.23;;;7.05;;
59109;SDS011;44895;47.438;18.978;2022-08-18T02:40:54;14.48;;;10.55;;
59109;SDS011;44895;47.438;18.978;2022-08-18T02:44:02;11.07;;;7.65;;
59109;SDS011;44895;47.438;18.978;2022-08-18T02:47:07;9.93;;;6.97;;
59109;SDS011;44895;47.438;18.978;2022-08-18T02:50:12;10.95;;;6.28;;
59109;SDS011;44895;47.438;18.978;2022-08-18T02:53:15;11.27;;;7.10;;
59109;SDS011;44895;47.438;18.978;2022-08-18T02:56:27;10.93;;;6.75;;
59109;SDS011;44895;47.438;18.978;2022-08-18T02:59:33;10.48;;;6.15;;
59109;SDS011;44895;47.438;18.978;2022-08-18T03:02:36;13.25;;;6.90;;
59109;SDS011;44895;47.438;18.978;2022-08-18T03:05:40;12.00;;;7.32;;
59109;SDS011;44895;47.438;18.978;2022-08-18T03:08:44;11.55;;;6.82;;
59109;SDS011;44895;47.438;18.978;2022-08-18T03:11:52;9.98;;;5.68;;
59109;SDS011;44895;47.438;18.978;2022-08-18T03:14:57;10.65;;;6.38;;
59109;SDS011;44895;47.438;18.978;2022-08-18T03:18:00;11.27;;;7.82;;
59109;SDS011;44895;47.438;18.978;2022-08-18T03:21:07;11.52;;;7.18;;
59109;SDS011;44895;47.438;18.978;2022-08-18T03:24:13;10.43;;;7.68;;
59109;SDS011;44895;47.438;18.978;2022-08-18T03:27:16;9.95;;;6.43;;
59109;SDS011;44895;47.438;18.978;2022-08-18T03:30:20;11.88;;;8.90;;
59109;SDS011;44895;47.438;18.978;2022-08-18T03:33:25;11.55;;;7.35;;
59109;SDS011;44895;47.438;18.978;2022-08-18T03:36:30;10.35;;;7.40;;
59109;SDS011;44895;47.438;18.978;2022-08-18T03:39:35;10.93;;;6.82;;
59109;SDS011;44895;47.438;18.978;2022-08-18T03:42:39;12.05;;;7.57;;
59109;SDS011;44895;47.438;18.978;2022-08-18T03:45:43;14.68;;;7.20;;
59109;SDS011;44895;47.438;18.978;2022-08-18T03:48:47;12.63;;;7.60;;
59109;SDS011;44895;47.438;18.978;2022-08-18T03:51:51;11.32;;;7.55;;
59109;SDS011;44895;47.438;18.978;2022-08-18T03:54:55;16.90;;;12.80;;
59109;SDS011;44895;47.438;18.978;2022-08-18T03:58:00;12.63;;;7.47;;
59109;SDS011;44895;47.438;18.978;2022-08-18T04:01:07;10.63;;;7.03;;
59109;SDS011;44895;47.438;18.978;2022-08-18T04:04:16;17.08;;;7.13;;
59109;SDS011;44895;47.438;18.978;2022-08-18T04:07:21;9.80;;;7.43;;
59109;SDS011;44895;47.438;18.978;2022-08-18T04:10:25;11.77;;;7.28;;
59109;SDS011;44895;47.438;18.978;2022-08-18T04:13:29;10.82;;;6.82;;
59109;SDS011;44895;47.438;18.978;2022-08-18T04:16:34;13.68;;;9.07;;
59109;SDS011;44895;47.438;18.978;2022-08-18T04:19:40;11.95;;;7.55;;
59109;SDS011;44895;47.438;18.978;2022-08-18T04:22:45;12.35;;;8.60;;
59109;SDS011;44895;47.438;18.978;2022-08-18T04:25:56;10.05;;;6.80;;
59109;SDS011;44895;47.438;18.978;2022-08-18T04:29:01;11.70;;;7.65;;
59109;SDS011;44895;47.438;18.978;2022-08-18T04:32:08;11.40;;;7.57;;
59109;SDS011;44895;47.438;18.978;2022-08-18T04:35:12;12.02;;;7.35;;
59109;SDS011;44895;47.438;18.978;2022-08-18T04:38:16;12.32;;;8.38;;
59109;SDS011;44895;47.438;18.978;2022-08-18T04:41:20;12.18;;;7.30;;
59109;SDS011;44895;47.438;18.978;2022-08-18T04:44:27;11.75;;;7.65;;
59109;SDS011;44895;47.438;18.978;2022-08-18T04:47:30;10.02;;;7.30;;
59109;SDS011;44895;47.438;18.978;2022-08-18T04:50:35;13.65;;;7.88;;
59109;SDS011;44895;47.438;18.978;2022-08-18T04:53:39;10.80;;;7.28;;
59109;SDS011;44895;47.438;18.978;2022-08-18T04:56:49;19.25;;;10.40;;
59109;SDS011;44895;47.438;18.978;2022-08-18T04:59:53;12.15;;;8.02;;
59109;SDS011;44895;47.438;18.978;2022-08-18T05:02:56;12.93;;;7.18;;
59109;SDS011;44895;47.438;18.978;2022-08-18T05:06:02;14.18;;;7.13;;
59109;SDS011;44895;47.438;18.978;2022-08-18T05:09:07;11.15;;;7.68;;
59109;SDS011;44895;47.438;18.978;2022-08-18T05:12:13;10.35;;;7.18;;
59109;SDS011;44895;47.438;18.978;2022-08-18T05:15:18;12.32;;;7.60;;
59109;SDS011;44895;47.438;18.978;2022-08-18T05:18:23;15.88;;;7.32;;
59109;SDS011;44895;47.438;18.978;2022-08-18T05:21:27;10.55;;;7.00;;
59109;SDS011;44895;47.438;18.978;2022-08-18T05:24:31;11.60;;;7.72;;
59109;SDS011;44895;47.438;18.978;2022-08-18T05:27:39;11.25;;;6.63;;
59109;SDS011;44895;47.438;18.978;2022-08-18T05:30:45;11.20;;;7.45;;
59109;SDS011;44895;47.438;18.978;2022-08-18T05:33:50;11.25;;;7.65;;
59109;SDS011;44895;47.438;18.978;2022-08-18T05:36:57;12.13;;;7.93;;
59109;SDS011;44895;47.438;18.978;2022-08-18T05:40:13;12.23;;;8.32;;
59109;SDS011;44895;47.438;18.978;2022-08-18T05:43:17;10.52;;;8.35;;
59109;SDS011;44895;47.438;18.978;2022-08-18T05:46:23;10.68;;;7.68;;
59109;SDS011;44895;47.438;18.978;2022-08-18T05:49:34;12.30;;;6.75;;
59109;SDS011;44895;47.438;18.978;2022-08-18T05:52:39;13.10;;;7.97;;
59109;SDS011;44895;47.438;18.978;2022-08-18T05:56:01;12.63;;;7.07;;
59109;SDS011;44895;47.438;18.978;2022-08-18T05:59:29;11.23;;;7.78;;
59109;SDS011;44895;47.438;18.978;2022-08-18T06:02:43;12.88;;;7.20;;
59109;SDS011;44895;47.438;18.978;2022-08-18T06:05:55;10.45;;;7.03;;
59109;SDS011;44895;47.438;18.978;2022-08-18T06:16:13;12.35;;;6.68;;
59109;SDS011;44895;47.438;18.978;2022-08-18T06:29:37;9.10;;;5.70;;
59109;SDS011;44895;47.438;18.978;2022-08-18T06:42:53;11.43;;;6.90;;
59109;SDS011;44895;47.438;18.978;2022-08-18T06:45:57;10.85;;;6.07;;
59109;SDS011;44895;47.438;18.978;2022-08-18T06:49:02;10.93;;;6.97;;
59109;SDS011;44895;47.438;18.978;2022-08-18T06:55:41;13.98;;;6.03;;
59109;SDS011;44895;47.438;18.978;2022-08-18T06:58:47;7.97;;;5.40;;
59109;SDS011;44895;47.438;18.978;2022-08-18T07:05:28;8.02;;;4.93;;
59109;SDS011;44895;47.438;18.978;2022-08-18T07:11:37;9.68;;;5.90;;
59109;SDS011;44895;47.438;18.978;2022-08-18T07:14:56;9.75;;;6.43;;
59109;SDS011;44895;47.438;18.978;2022-08-18T07:18:03;12.93;;;5.55;;
59109;SDS011;44895;47.438;18.978;2022-08-18T07:21:10;9.23;;;5.75;;
59109;SDS011;44895;47.438;18.978;2022-08-18T07:24:32;14.45;;;5.97;;
59109;SDS011;44895;47.438;18.978;2022-08-18T07:27:46;8.73;;;5.63;;
59109;SDS011;44895;47.438;18.978;2022-08-18T07:30:52;11.15;;;6.28;;
59109;SDS011;44895;47.438;18.978;2022-08-18T07:34:21;9.38;;;5.13;;
59109;SDS011;44895;47.438;18.978;2022-08-18T07:47:44;8.52;;;5.50;;
59109;SDS011;44895;47.438;18.978;2022-08-18T08:00:47;9.30;;;6.25;;
59109;SDS011;44895;47.438;18.978;2022-08-18T08:07:14;9.43;;;5.45;;
59109;SDS011;44895;47.438;18.978;2022-08-18T08:13:46;9.80;;;7.28;;
59109;SDS011;44895;47.438;18.978;2022-08-18T08:17:11;11.63;;;6.57;;
59109;SDS011;44895;47.438;18.978;2022-08-18T08:20:39;21.65;;;8.35;;
59109;SDS011;44895;47.438;18.978;2022-08-18T08:27:23;9.48;;;5.20;;
59109;SDS011;44895;47.438;18.978;2022-08-18T08:30:39;12.75;;;6.38;;
59109;SDS011;44895;47.438;18.978;2022-08-18T08:37:19;7.93;;;4.82;;
59109;SDS011;44895;47.438;18.978;2022-08-18T08:40:36;9.85;;;5.90;;
59109;SDS011;44895;47.438;18.978;2022-08-18T08:44:06;10.32;;;6.28;;
59109;SDS011;44895;47.438;18.978;2022-08-18T08:47:42;10.00;;;5.78;;
59109;SDS011;44895;47.438;18.978;2022-08-18T08:50:55;11.10;;;5.15;;
59109;SDS011;44895;47.438;18.978;2022-08-18T08:54:04;11.70;;;5.28;;
59109;SDS011;44895;47.438;18.978;2022-08-18T08:57:16;8.70;;;5.65;;
59109;SDS011;44895;47.438;18.978;2022-08-18T09:00:21;8.68;;;5.35;;
59109;SDS011;44895;47.438;18.978;2022-08-18T09:03:44;8.18;;;5.20;;
59109;SDS011;44895;47.438;18.978;2022-08-18T09:24:45;9.77;;;5.65;;
59109;SDS011;44895;47.438;18.978;2022-08-18T09:27:54;8.48;;;5.38;;
59109;SDS011;44895;47.438;18.978;2022-08-18T09:31:27;8.90;;;5.25;;
59109;SDS011;44895;47.438;18.978;2022-08-18T09:38:05;9.15;;;5.50;;
59109;SDS011;44895;47.438;18.978;2022-08-18T09:41:32;10.27;;;4.97;;
59109;SDS011;44895;47.438;18.978;2022-08-18T09:54:18;8.90;;;5.43;;
59109;SDS011;44895;47.438;18.978;2022-08-18T09:57:35;12.57;;;5.10;;
59109;SDS011;44895;47.438;18.978;2022-08-18T10:00:40;9.65;;;4.70;;
59109;SDS011;44895;47.438;18.978;2022-08-18T10:04:09;11.32;;;4.82;;
59109;SDS011;44895;47.438;18.978;2022-08-18T10:13:59;7.05;;;3.80;;
59109;SDS011;44895;47.438;18.978;2022-08-18T10:17:31;7.72;;;4.28;;
59109;SDS011;44895;47.438;18.978;2022-08-18T10:27:06;7.07;;;3.97;;
59109;SDS011;44895;47.438;18.978;2022-08-18T10:34:14;9.85;;;5.70;;
59109;SDS011;44895;47.438;18.978;2022-08-18T10:37:01;8.20;;;4.82;;
59109;SDS011;44895;47.438;18.978;2022-08-18T10:40:36;6.63;;;4.18;;
59109;SDS011;44895;47.438;18.978;2022-08-18T10:43:42;10.60;;;4.85;;
59109;SDS011;44895;47.438;18.978;2022-08-18T10:46:49;9.00;;;4.35;;
59109;SDS011;44895;47.438;18.978;2022-08-18T10:49:55;8.57;;;4.28;;
59109;SDS011;44895;47.438;18.978;2022-08-18T10:56:45;6.78;;;3.50;;
59109;SDS011;44895;47.438;18.978;2022-08-18T10:59:58;7.00;;;4.38;;
59109;SDS011;44895;47.438;18.978;2022-08-18T11:07:27;8.48;;;3.80;;
59109;SDS011;44895;47.438;18.978;2022-08-18T11:10:41;8.07;;;4.32;;
59109;SDS011;44895;47.438;18.978;2022-08-18T11:17:29;7.07;;;3.50;;
59109;SDS011;44895;47.438;18.978;2022-08-18T11:20:41;7.07;;;3.90;;
59109;SDS011;44895;47.438;18.978;2022-08-18T11:24:00;7.38;;;3.17;;
59109;SDS011;44895;47.438;18.978;2022-08-18T11:27:21;7.00;;;3.55;;
59109;SDS011;44895;47.438;18.978;2022-08-18T11:30:29;5.40;;;2.67;;
59109;SDS011;44895;47.438;18.978;2022-08-18T11:33:39;5.75;;;3.17;;
59109;SDS011;44895;47.438;18.978;2022-08-18T11:36:53;8.32;;;4.15;;
59109;SDS011;44895;47.438;18.978;2022-08-18T11:40:00;7.17;;;3.90;;
59109;SDS011;44895;47.438;18.978;2022-08-18T11:46:14;6.70;;;3.65;;
59109;SDS011;44895;47.438;18.978;2022-08-18T11:49:31;5.57;;;3.25;;
59109;SDS011;44895;47.438;18.978;2022-08-18T11:52:50;11.02;;;3.92;;
59109;SDS011;44895;47.438;18.978;2022-08-18T11:56:02;9.57;;;4.38;;
59109;SDS011;44895;47.438;18.978;2022-08-18T11:59:29;6.88;;;3.28;;
59109;SDS011;44895;47.438;18.978;2022-08-18T12:02:31;7.28;;;3.25;;
59109;SDS011;44895;47.438;18.978;2022-08-18T12:05:49;7.88;;;3.33;;
59109;SDS011;44895;47.438;18.978;2022-08-18T12:09:04;7.38;;;4.15;;
59109;SDS011;44895;47.438;18.978;2022-08-18T12:15:29;6.38;;;3.63;;
59109;SDS011;44895;47.438;18.978;2022-08-18T12:18:34;6.60;;;3.33;;
59109;SDS011;44895;47.438;18.978;2022-08-18T12:21:39;8.98;;;3.80;;
59109;SDS011;44895;47.438;18.978;2022-08-18T12:24:45;8.70;;;3.90;;
59109;SDS011;44895;47.438;18.978;2022-08-18T12:27:50;7.93;;;4.00;;
59109;SDS011;44895;47.438;18.978;2022-08-18T12:30:53;7.00;;;3.15;;
59109;SDS011;44895;47.438;18.978;2022-08-18T12:33:57;6.28;;;3.60;;
59109;SDS011;44895;47.438;18.978;2022-08-18T12:37:01;7.05;;;3.85;;
59109;SDS011;44895;47.438;18.978;2022-08-18T12:40:05;7.90;;;3.10;;
59109;SDS011;44895;47.438;18.978;2022-08-18T12:43:10;12.32;;;3.60;;
59109;SDS011;44895;47.438;18.978;2022-08-18T12:46:14;7.22;;;4.00;;
59109;SDS011;44895;47.438;18.978;2022-08-18T12:49:19;11.15;;;3.58;;
59109;SDS011;44895;47.438;18.978;2022-08-18T12:52:25;8.95;;;4.90;;
59109;SDS011;44895;47.438;18.978;2022-08-18T12:55:33;6.70;;;3.53;;
59109;SDS011;44895;47.438;18.978;2022-08-18T12:58:40;9.98;;;3.58;;
59109;SDS011;44895;47.438;18.978;2022-08-18T13:01:43;8.15;;;3.88;;
59109;SDS011;44895;47.438;18.978;2022-08-18T13:04:48;11.18;;;3.55;;
59109;SDS011;44895;47.438;18.978;2022-08-18T13:07:52;6.28;;;3.42;;
59109;SDS011;44895;47.438;18.978;2022-08-18T13:10:55;8.32;;;3.88;;
59109;SDS011;44895;47.438;18.978;2022-08-18T13:14:02;7.32;;;3.30;;
59109;SDS011;44895;47.438;18.978;2022-08-18T13:17:06;9.55;;;3.67;;
59109;SDS011;44895;47.438;18.978;2022-08-18T13:20:11;6.97;;;3.95;;
59109;SDS011;44895;47.438;18.978;2022-08-18T13:23:18;10.00;;;3.42;;
59109;SDS011;44895;47.438;18.978;2022-08-18T13:26:24;7.03;;;3.88;;
59109;SDS011;44895;47.438;18.978;2022-08-18T13:29:33;9.15;;;4.43;;
59109;SDS011;44895;47.438;18.978;2022-08-18T13:32:37;5.53;;;2.88;;
59109;SDS011;44895;47.438;18.978;2022-08-18T13:35:40;7.97;;;2.85;;
59109;SDS011;44895;47.438;18.978;2022-08-18T13:38:44;6.68;;;2.80;;
59109;SDS011;44895;47.438;18.978;2022-08-18T13:41:49;16.15;;;5.05;;
59109;SDS011;44895;47.438;18.978;2022-08-18T13:44:58;10.25;;;3.30;;
59109;SDS011;44895;47.438;18.978;2022-08-18T13:48:03;6.25;;;2.95;;
59109;SDS011;44895;47.438;18.978;2022-08-18T13:51:08;6.93;;;3.22;;
59109;SDS011;44895;47.438;18.978;2022-08-18T13:54:26;7.38;;;2.90;;
59109;SDS011;44895;47.438;18.978;2022-08-18T13:57:32;7.57;;;3.30;;
59109;SDS011;44895;47.438;18.978;2022-08-18T14:00:36;6.82;;;2.80;;
59109;SDS011;44895;47.438;18.978;2022-08-18T14:03:40;9.20;;;3.58;;
59109;SDS011;44895;47.438;18.978;2022-08-18T14:06:44;5.85;;;2.70;;
59109;SDS011;44895;47.438;18.978;2022-08-18T14:09:48;6.45;;;2.60;;
59109;SDS011;44895;47.438;18.978;2022-08-18T14:12:55;6.05;;;2.55;;
59109;SDS011;44895;47.438;18.978;2022-08-18T14:16:01;10.00;;;3.38;;
59109;SDS011;44895;47.438;18.978;2022-08-18T14:19:05;7.35;;;3.38;;
59109;SDS011;44895;47.438;18.978;2022-08-18T14:22:27;8.27;;;3.33;;
59109;SDS011;44895;47.438;18.978;2022-08-18T14:25:50;9.93;;;3.83;;
59109;SDS011;44895;47.438;18.978;2022-08-18T14:29:12;6.70;;;2.72;;
59109;SDS011;44895;47.438;18.978;2022-08-18T14:32:20;4.90;;;2.35;;
59109;SDS011;44895;47.438;18.978;2022-08-18T14:35:25;6.43;;;2.35;;
59109;SDS011;44895;47.438;18.978;2022-08-18T14:38:29;5.35;;;2.67;;
59109;SDS011;44895;47.438;18.978;2022-08-18T14:41:33;7.90;;;2.15;;
59109;SDS011;44895;47.438;18.978;2022-08-18T14:44:37;7.10;;;2.38;;
59109;SDS011;44895;47.438;18.978;2022-08-18T14:47:41;11.77;;;2.67;;
59109;SDS011;44895;47.438;18.978;2022-08-18T14:50:46;6.05;;;2.53;;
59109;SDS011;44895;47.438;18.978;2022-08-18T14:53:52;7.03;;;2.38;;
59109;SDS011;44895;47.438;18.978;2022-08-18T14:56:57;4.82;;;2.05;;
59109;SDS011;44895;47.438;18.978;2022-08-18T15:00:04;8.18;;;2.75;;
59109;SDS011;44895;47.438;18.978;2022-08-18T15:03:13;5.13;;;2.65;;
59109;SDS011;44895;47.438;18.978;2022-08-18T15:06:17;5.20;;;2.33;;
59109;SDS011;44895;47.438;18.978;2022-08-18T15:09:21;7.43;;;2.30;;
59109;SDS011;44895;47.438;18.978;2022-08-18T15:12:25;6.15;;;3.10;;
59109;SDS011;44895;47.438;18.978;2022-08-18T15:15:30;7.80;;;3.50;;
59109;SDS011;44895;47.438;18.978;2022-08-18T15:18:35;4.88;;;2.22;;
59109;SDS011;44895;47.438;18.978;2022-08-18T15:21:38;5.57;;;2.08;;
59109;SDS011;44895;47.438;18.978;2022-08-18T15:25:00;3.78;;;1.80;;
59109;SDS011;44895;47.438;18.978;2022-08-18T15:28:23;6.15;;;2.15;;
59109;SDS011;44895;47.438;18.978;2022-08-18T15:31:28;5.50;;;3.22;;
59109;SDS011;44895;47.438;18.978;2022-08-18T15:34:32;7.47;;;2.20;;
59109;SDS011;44895;47.438;18.978;2022-08-18T15:37:37;8.70;;;1.90;;
59109;SDS011;44895;47.438;18.978;2022-08-18T15:40:55;5.25;;;1.98;;
59109;SDS011;44895;47.438;18.978;2022-08-18T15:44:01;4.88;;;2.30;;
59109;SDS011;44895;47.438;18.978;2022-08-18T15:47:07;9.68;;;2.83;;
59109;SDS011;44895;47.438;18.978;2022-08-18T15:50:11;6.88;;;3.08;;
59109;SDS011;44895;47.438;18.978;2022-08-18T15:53:20;5.40;;;2.10;;
59109;SDS011;44895;47.438;18.978;2022-08-18T15:56:28;6.85;;;2.30;;
59109;SDS011;44895;47.438;18.978;2022-08-18T15:59:33;7.82;;;2.08;;
59109;SDS011;44895;47.438;18.978;2022-08-18T16:02:38;6.95;;;2.40;;
59109;SDS011;44895;47.438;18.978;2022-08-18T16:06:01;5.63;;;2.22;;
59109;SDS011;44895;47.438;18.978;2022-08-18T16:09:05;5.47;;;2.70;;
59109;SDS011;44895;47.438;18.978;2022-08-18T16:12:09;5.80;;;2.40;;
59109;SDS011;44895;47.438;18.978;2022-08-18T16:15:13;8.13;;;2.45;;
59109;SDS011;44895;47.438;18.978;2022-08-18T16:18:22;6.20;;;2.53;;
59109;SDS011;44895;47.438;18.978;2022-08-18T16:21:26;5.18;;;1.98;;
59109;SDS011;44895;47.438;18.978;2022-08-18T16:24:29;5.90;;;3.08;;
59109;SDS011;44895;47.438;18.978;2022-08-18T16:27:34;6.22;;;2.83;;
59109;SDS011;44895;47.438;18.978;2022-08-18T16:30:38;6.22;;;2.83;;
59109;SDS011;44895;47.438;18.978;2022-08-18T16:33:41;8.07;;;3.33;;
59109;SDS011;44895;47.438;18.978;2022-08-18T16:36:45;6.38;;;2.55;;
59109;SDS011;44895;47.438;18.978;2022-08-18T16:39:49;6.30;;;2.83;;
59109;SDS011;44895;47.438;18.978;2022-08-18T16:42:53;7.50;;;3.28;;
59109;SDS011;44895;47.438;18.978;2022-08-18T16:45:57;8.23;;;3.83;;
59109;SDS011;44895;47.438;18.978;2022-08-18T16:49:02;8.27;;;4.78;;
59109;SDS011;44895;47.438;18.978;2022-08-18T16:52:10;5.72;;;2.88;;
59109;SDS011;44895;47.438;18.978;2022-08-18T16:55:16;6.57;;;2.92;;
59109;SDS011;44895;47.438;18.978;2022-08-18T16:58:19;5.72;;;2.10;;
59109;SDS011;44895;47.438;18.978;2022-08-18T17:01:42;6.03;;;2.65;;
59109;SDS011;44895;47.438;18.978;2022-08-18T17:05:03;5.15;;;1.92;;
59109;SDS011;44895;47.438;18.978;2022-08-18T17:08:07;6.30;;;2.58;;
59109;SDS011;44895;47.438;18.978;2022-08-18T17:11:13;7.18;;;4.03;;
59109;SDS011;44895;47.438;18.978;2022-08-18T17:14:20;6.07;;;2.40;;
59109;SDS011;44895;47.438;18.978;2022-08-18T17:17:26;6.15;;;2.55;;
59109;SDS011;44895;47.438;18.978;2022-08-18T17:20:32;8.82;;;3.20;;
59109;SDS011;44895;47.438;18.978;2022-08-18T17:23:37;6.25;;;2.92;;
59109;SDS011;44895;47.438;18.978;2022-08-18T17:30:03;11.07;;;5.28;;
59109;SDS011;44895;47.438;18.978;2022-08-18T17:33:11;8.73;;;2.70;;
59109;SDS011;44895;47.438;18.978;2022-08-18T17:36:22;4.90;;;2.22;;
59109;SDS011;44895;47.438;18.978;2022-08-18T17:39:35;5.82;;;2.75;;
59109;SDS011;44895;47.438;18.978;2022-08-18T17:42:51;7.75;;;2.92;;
59109;SDS011;44895;47.438;18.978;2022-08-18T17:45:56;6.55;;;2.58;;
59109;SDS011;44895;47.438;18.978;2022-08-18T17:49:11;9.15;;;2.40;;
59109;SDS011;44895;47.438;18.978;2022-08-18T17:52:20;6.05;;;2.78;;
59109;SDS011;44895;47.438;18.978;2022-08-18T17:55:25;9.07;;;3.50;;
59109;SDS011;44895;47.438;18.978;2022-08-18T18:01:42;7.50;;;2.97;;
59109;SDS011;44895;47.438;18.978;2022-08-18T18:04:46;5.15;;;2.53;;
59109;SDS011;44895;47.438;18.978;2022-08-18T18:10:54;4.80;;;2.30;;
59109;SDS011;44895;47.438;18.978;2022-08-18T18:17:41;7.22;;;2.92;;
59109;SDS011;44895;47.438;18.978;2022-08-18T18:20:45;5.85;;;2.60;;
59109;SDS011;44895;47.438;18.978;2022-08-18T18:27:22;8.32;;;3.70;;
59109;SDS011;44895;47.438;18.978;2022-08-18T18:30:31;10.27;;;4.10;;
59109;SDS011;44895;47.438;18.978;2022-08-18T18:33:35;5.75;;;3.60;;
59109;SDS011;44895;47.438;18.978;2022-08-18T18:36:44;8.23;;;2.75;;
59109;SDS011;44895;47.438;18.978;2022-08-18T18:39:57;6.95;;;3.05;;
59109;SDS011;44895;47.438;18.978;2022-08-18T18:43:26;5.45;;;2.63;;
59109;SDS011;44895;47.438;18.978;2022-08-18T18:46:49;8.95;;;4.63;;
59109;SDS011;44895;47.438;18.978;2022-08-18T18:50:08;5.70;;;2.80;;
59109;SDS011;44895;47.438;18.978;2022-08-18T18:53:29;6.85;;;2.45;;
59109;SDS011;44895;47.438;18.978;2022-08-18T18:56:50;6.47;;;2.88;;
59109;SDS011;44895;47.438;18.978;2022-08-18T19:03:35;7.53;;;3.15;;
59109;SDS011;44895;47.438;18.978;2022-08-18T19:13:19;7.93;;;3.25;;
59109;SDS011;44895;47.438;18.978;2022-08-18T19:17:13;7.63;;;2.85;;
59109;SDS011;44895;47.438;18.978;2022-08-18T19:20:06;6.65;;;3.00;;
59109;SDS011;44895;47.438;18.978;2022-08-18T19:23:17;10.38;;;3.47;;
59109;SDS011;44895;47.438;18.978;2022-08-18T19:26:23;7.90;;;3.55;;
59109;SDS011;44895;47.438;18.978;2022-08-18T19:29:34;6.28;;;2.65;;
59109;SDS011;44895;47.438;18.978;2022-08-18T19:32:48;7.30;;;2.95;;
59109;SDS011;44895;47.438;18.978;2022-08-18T19:36:27;6.63;;;2.72;;
59109;SDS011;44895;47.438;18.978;2022-08-18T19:49:42;9.32;;;3.83;;
59109;SDS011;44895;47.438;18.978;2022-08-18T19:56:46;10.25;;;4.28;;
59109;SDS011;44895;47.438;18.978;2022-08-18T20:00:13;10.88;;;5.07;;
59109;SDS011;44895;47.438;18.978;2022-08-18T20:11:06;7.80;;;4.13;;
59109;SDS011;44895;47.438;18.978;2022-08-18T20:13:54;7.22;;;4.22;;
59109;SDS011;44895;47.438;18.978;2022-08-18T20:20:13;11.63;;;4.72;;
59109;SDS011;44895;47.438;18.978;2022-08-18T20:23:33;10.63;;;4.95;;
59109;SDS011;44895;47.438;18.978;2022-08-18T20:26:43;7.88;;;4.72;;
59109;SDS011;44895;47.438;18.978;2022-08-18T20:29:59;11.63;;;5.45;;
59109;SDS011;44895;47.438;18.978;2022-08-18T20:36:27;9.27;;;4.45;;
59109;SDS011;44895;47.438;18.978;2022-08-18T20:42:43;10.20;;;5.15;;
59109;SDS011;44895;47.438;18.978;2022-08-18T20:45:50;8.48;;;5.00;;
59109;SDS011;44895;47.438;18.978;2022-08-18T20:52:34;9.25;;;4.68;;
59109;SDS011;44895;47.438;18.978;2022-08-18T20:59:00;8.20;;;4.95;;
59109;SDS011;44895;47.438;18.978;2022-08-18T21:02:23;8.00;;;5.18;;
59109;SDS011;44895;47.438;18.978;2022-08-18T21:05:33;8.48;;;5.30;;
59109;SDS011;44895;47.438;18.978;2022-08-18T21:08:43;9.60;;;5.40;;
59109;SDS011;44895;47.438;18.978;2022-08-18T21:11:49;8.48;;;4.65;;
59109;SDS011;44895;47.438;18.978;2022-08-18T21:14:54;10.52;;;5.68;;
59109;SDS011;44895;47.438;18.978;2022-08-18T21:17:59;10.32;;;6.32;;
59109;SDS011;44895;47.438;18.978;2022-08-18T21:21:11;13.98;;;6.03;;
59109;SDS011;44895;47.438;18.978;2022-08-18T21:27:30;8.57;;;4.85;;
59109;SDS011;44895;47.438;18.978;2022-08-18T21:30:42;8.93;;;5.72;;
59109;SDS011;44895;47.438;18.978;2022-08-18T21:33:58;8.82;;;5.25;;
59109;SDS011;44895;47.438;18.978;2022-08-18T21:37:04;10.98;;;5.38;;
59109;SDS011;44895;47.438;18.978;2022-08-18T21:40:10;11.07;;;5.28;;
59109;SDS011;44895;47.438;18.978;2022-08-18T21:43:35;11.38;;;5.97;;
59109;SDS011;44895;47.438;18.978;2022-08-18T21:46:39;11.35;;;5.75;;
59109;SDS011;44895;47.438;18.978;2022-08-18T21:53:26;8.88;;;6.28;;
59109;SDS011;44895;47.438;18.978;2022-08-18T21:56:30;8.20;;;5.32;;
59109;SDS011;44895;47.438;18.978;2022-08-18T21:59:35;8.98;;;5.68;;
59109;SDS011;44895;47.438;18.978;2022-08-18T22:06:29;8.75;;;5.45;;
59109;SDS011;44895;47.438;18.978;2022-08-18T22:09:59;8.13;;;5.47;;
59109;SDS011;44895;47.438;18.978;2022-08-18T22:13:25;9.25;;;5.60;;